Les Masies de Roda





Hora UTC 16:45
Temperatura 24.8 ºC
Suelo 15 cm 30.2 ºC
Subsuelo 10 cm 21.7 ºC
Humedad 45.0 %
Presión 1023.7 hPa
Pluja 0.0 mm
Velocidad viento 6.7 km/h
Dirección viento ESE
Radiación solar 386.1 W/m²

Datos diarios 2020-05-25



Hora UTC (invierno +1h; verano +2h)
Temperatura (ºC) Humedad (%) Presión (hPa) Velocidad viento (km/h) Precipitación (mm) Radiación solar (W/m²)
Hora UTC Aire Suelo 15 cm Subsuelo 10 cm Humedad Presión Vel. Dir. Vel. Max Dir. Intent. máx 5 min. Rad. Sol.
00:05 18.1 16.9 18.8 84.7 1025.9 0.0 NNE 0.0 WSW 0.0 0.1
00:10 18.1 16.9 18.8 84.2 1025.8 0.0 NNE 0.0 WSW 0.0 0.1
00:15 18.1 16.8 18.8 83.9 1025.8 0.0 NNE 0.0 WSW 0.0 0.1
00:20 18.2 16.9 18.8 84.0 1025.7 0.0 NNE 0.0 WSW 0.0 0.1
00:25 18.2 16.9 18.8 83.8 1025.6 0.0 NNE 0.0 WSW 0.0 0.1
00:30 18.3 16.9 18.8 83.6 1025.6 0.0 NNE 0.0 WSW 0.0 0.1
00:35 18.2 16.9 18.8 84.8 1025.6 0.0 NNE 0.0 WSW 0.0 0.1
00:40 18.2 16.9 18.7 85.0 1025.6 0.0 NNE 0.0 WSW 0.0 0.1
00:45 18.2 16.9 18.7 83.1 1025.6 0.0 NNE 0.0 WSW 0.0 0.1
00:50 18.3 16.9 18.7 84.3 1025.6 0.0 NNE 0.0 WSW 0.0 0.1
00:55 18.2 16.9 18.7 85.4 1025.6 0.0 NNE 0.0 WSW 0.0 0.1
01:00 18.2 16.8 18.7 85.5 1025.5 0.0 NNE 0.0 WSW 0.0 0.1
01:05 18.3 16.8 18.7 83.3 1025.5 0.0 NNE 0.0 WSW 0.0 0.1
01:10 18.3 16.8 18.7 83.3 1025.4 0.5 ENE 3.4 NE 0.0 0.1
01:15 18.3 16.9 18.7 84.8 1025.4 0.5 NNW 3.4 NE 0.0 0.1
01:20 18.1 16.8 18.7 86.5 1025.4 0.1 NNW 3.4 NNW 0.0 0.1
01:25 18.0 16.8 18.7 87.1 1025.4 0.0 NNE 0.0 N 0.0 0.1
01:30 18.0 16.8 18.7 86.9 1025.4 0.0 NNE 0.0 N 0.0 0.1
01:35 18.0 16.8 18.7 85.5 1025.3 0.0 NNE 0.0 N 0.0 0.1
01:40 18.1 16.8 18.6 85.3 1025.3 0.0 NNE 0.0 NE 0.0 0.1
01:45 18.1 16.8 18.6 84.8 1025.2 0.1 ENE 3.4 ENE 0.0 0.1
01:50 18.1 16.7 18.6 84.4 1025.1 0.0 NNE 0.0 ENE 0.0 0.1
01:55 18.1 16.6 18.6 84.5 1025.0 1.5 E 6.1 ESE 0.0 0.1
02:00 18.1 16.6 18.6 83.8 1025.0 1.3 E 6.1 E 0.0 0.1
02:05 18.2 16.5 18.6 84.2 1025.0 0.0 NNE 0.0 E 0.0 0.1
02:10 18.1 16.5 18.6 84.2 1024.9 0.0 NNE 0.0 E 0.0 0.1
02:15 18.1 16.4 18.6 84.8 1024.9 0.0 NNE 0.0 E 0.0 0.1
02:20 17.9 16.3 18.5 85.6 1024.9 0.0 NNE 0.0 E 0.0 0.1
02:25 17.8 16.4 18.5 87.2 1024.9 0.0 NNE 0.0 E 0.0 0.1
02:30 17.7 16.4 18.5 86.1 1024.9 0.0 NNE 0.0 E 0.0 0.1
02:35 17.9 16.4 18.5 84.5 1024.8 0.2 S 3.4 S 0.0 0.1
02:40 18.1 16.5 18.5 84.1 1024.8 1.6 S 3.4 S 0.0 0.1
02:45 18.1 16.5 18.5 83.6 1024.8 0.0 NNE 0.0 S 0.0 0.1
02:50 17.9 16.5 18.5 86.6 1024.8 0.0 NNE 0.0 S 0.0 0.1
02:55 17.8 16.6 18.5 86.7 1024.8 0.0 NNE 0.0 WNW 0.0 0.1
03:00 17.7 16.5 18.5 86.4 1024.8 0.0 NNE 0.0 WNW 0.0 0.1
03:05 17.7 16.5 18.5 86.3 1024.9 0.0 NNE 0.0 WNW 0.0 0.1
03:10 17.7 16.5 18.5 86.4 1024.8 0.0 NNE 0.0 WNW 0.0 0.1
03:15 17.7 16.5 18.5 86.1 1024.9 0.0 NNE 0.0 WNW 0.0 0.1
03:20 17.7 16.5 18.5 85.1 1024.8 0.0 NNE 0.0 SSE 0.0 0.1
03:25 17.8 16.5 18.5 85.6 1024.8 0.0 NNE 0.0 SSE 0.0 0.1
03:30 17.8 16.5 18.5 85.4 1024.8 0.0 NNE 0.0 SSE 0.0 0.1
03:35 17.9 16.5 18.5 85.9 1024.8 0.0 NNE 0.0 SSE 0.0 0.1
03:40 17.8 16.6 18.4 87.1 1024.8 0.0 NNE 0.0 SSE 0.0 0.1
03:45 17.7 16.5 18.4 86.3 1024.7 0.0 NNE 0.0 SSE 0.0 0.1
03:50 17.7 16.5 18.4 86.1 1024.7 0.0 NNE 0.0 SSE 0.0 0.1
03:55 17.7 16.5 18.4 87.7 1024.7 0.0 NNE 0.0 SSE 0.0 0.1
04:00 17.6 16.5 18.4 87.3 1024.7 0.0 NNE 0.0 W 0.0 0.1
04:05 17.7 16.5 18.4 86.7 1024.7 0.0 NNE 0.0 W 0.0 0.2
04:10 17.7 16.5 18.4 86.2 1024.8 0.0 NNE 0.0 NW 0.0 0.5
04:15 17.7 16.4 18.4 86.9 1024.8 0.0 NNE 0.0 NW 0.0 1.5
04:20 17.6 16.4 18.4 86.9 1024.8 0.0 NNE 0.0 NW 0.0 2.8
04:25 17.7 16.4 18.4 86.0 1024.8 0.0 NNE 0.0 NW 0.0 4.4
04:30 17.7 16.5 18.4 86.1 1024.8 0.0 NNE 0.0 NW 0.0 5.2
04:35 17.8 16.5 18.4 85.7 1024.9 0.0 NNE 0.0 NW 0.0 8.3
04:40 17.8 16.5 18.4 86.1 1025.0 0.0 NNE 0.0 NW 0.0 11.6
04:45 17.9 16.6 18.4 85.0 1024.9 0.0 NNE 0.0 NW 0.0 14.4
04:50 17.9 16.7 18.4 85.0 1024.9 0.1 ENE 3.4 ENE 0.0 17.2
04:55 18.0 16.8 18.4 85.3 1025.0 0.0 NNE 0.0 ENE 0.0 19.9
05:00 18.0 16.8 18.4 84.4 1025.0 1.2 ENE 6.1 ENE 0.0 18.6
05:05 18.0 16.9 18.4 83.6 1025.1 1.4 ENE 6.1 ENE 0.0 23.7
05:10 18.0 17.0 18.4 83.9 1025.1 0.4 NE 6.1 NE 0.0 32.0
05:15 18.0 17.1 18.4 85.0 1025.1 0.0 ENE 3.4 ENE 0.0 31.7
05:20 18.0 17.1 18.5 83.8 1025.1 0.2 ENE 3.4 ENE 0.0 31.9
05:25 18.1 17.2 18.5 83.6 1025.2 0.9 ENE 3.4 ENE 0.0 36.7
05:30 18.1 17.4 18.5 83.6 1025.2 0.0 NNE 0.0 NE 0.0 43.2
05:35 18.1 17.5 18.5 83.5 1025.3 0.0 NNE 0.0 NE 0.0 35.6
05:40 18.2 17.5 18.5 83.9 1025.3 0.0 NNE 0.0 NE 0.0 34.0
05:45 18.2 17.6 18.5 84.5 1025.3 0.3 S 3.4 SSW 0.0 27.6
05:50 18.2 17.6 18.5 84.7 1025.3 0.0 SW 3.4 SW 0.0 30.4
05:55 18.2 17.7 18.5 85.3 1025.4 0.0 NNE 0.0 SW 0.0 46.6
06:00 18.2 17.8 18.5 85.4 1025.4 0.0 NNE 0.0 SW 0.0 65.1
06:05 18.3 18.1 18.5 85.5 1025.4 0.0 NNE 0.0 SW 0.0 82.6
06:10 18.5 18.4 18.6 83.0 1025.5 0.0 NNE 0.0 SW 0.0 90.0
06:15 18.6 18.7 18.6 80.9 1025.5 0.0 NNE 0.0 SW 0.0 92.4
06:20 18.8 19.0 18.7 80.8 1025.6 0.0 NNE 0.0 SW 0.0 94.0
06:25 18.8 19.1 18.7 80.0 1025.6 2.3 S 6.1 S 0.0 93.2
06:30 18.9 19.2 18.7 80.0 1025.6 0.9 SSW 6.1 S 0.0 97.4
06:35 19.0 19.3 18.7 78.1 1025.6 2.4 SSW 6.1 SSW 0.0 97.4
06:40 19.1 19.4 18.8 74.9 1025.6 5.2 S 8.8 SSW 0.0 101.2
06:45 19.2 19.4 18.8 75.2 1025.6 2.8 SW 8.8 WSW 0.0 108.4
06:50 19.1 19.4 18.8 72.6 1025.6 6.0 SW 8.8 SW 0.0 111.3
06:55 19.1 19.4 18.8 71.9 1025.6 5.1 SW 8.8 SW 0.0 117.1
07:00 19.2 19.5 18.8 72.7 1025.6 3.4 SSW 6.1 SW 0.0 123.4
07:05 19.3 19.7 18.8 71.4 1025.6 4.6 SSW 8.8 SSW 0.0 128.1
07:10 19.3 19.7 18.8 70.0 1025.6 6.5 S 11.5 S 0.0 117.9
07:15 19.2 19.5 18.8 68.9 1025.6 8.6 SSW 14.2 S 0.0 107.5
07:20 19.2 19.3 18.7 69.1 1025.6 6.4 SSW 11.5 SSW 0.0 102.3
07:25 19.2 19.2 18.7 68.9 1025.7 6.9 SSW 11.5 S 0.0 102.3
07:30 19.2 19.2 18.7 68.5 1025.7 6.5 SSW 11.5 S 0.0 127.9
07:35 19.3 19.3 18.7 68.6 1025.7 6.4 SSW 11.5 SW 0.0 151.2
07:40 19.3 19.5 18.7 68.9 1025.7 6.3 SSW 11.5 SW 0.0 146.1
07:45 19.3 19.7 18.8 69.4 1025.7 5.6 SW 11.5 SW 0.0 156.5
07:50 19.4 19.9 18.8 68.4 1025.6 7.1 S 11.5 SSW 0.0 189.8
07:55 19.5 20.2 18.8 67.8 1025.6 7.2 SSW 11.5 SW 0.0 224.4
08:00 19.7 20.6 18.9 67.4 1025.6 4.6 SSW 8.8 SW 0.0 286.9
08:05 19.9 21.3 18.9 65.8 1025.5 5.7 SSW 11.5 SSW 0.0 308.5
08:10 20.2 22.0 19.0 65.7 1025.5 4.0 S 8.8 S 0.0 411.8
08:15 20.5 22.7 19.2 64.2 1025.5 4.3 S 8.8 SSW 0.0 414.3
08:20 20.6 23.2 19.2 63.3 1025.4 4.0 S 8.8 S 0.0 417.3
08:25 21.0 23.9 19.3 63.3 1025.5 4.4 WSW 8.8 WSW 0.0 532.4
08:30 21.3 24.5 19.4 62.7 1025.5 4.6 SW 8.8 WNW 0.0 580.0
08:35 21.5 25.1 19.5 61.2 1025.4 4.0 SW 11.5 WSW 0.0 659.5
08:40 21.5 25.7 19.6 61.8 1025.4 6.5 W 11.5 WNW 0.0 685.0
08:45 21.6 26.4 19.7 62.1 1025.4 5.1 W 11.5 W 0.0 760.1
08:50 21.9 27.2 19.9 59.7 1025.5 3.7 NNE 11.5 NNE 0.0 604.5
08:55 21.7 28.0 20.0 57.1 1025.5 3.3 NE 6.1 NE 0.0 465.4
09:00 21.7 28.2 20.0 58.0 1025.5 3.2 NE 8.8 ENE 0.0 474.2
09:05 21.8 28.0 20.1 59.1 1025.5 3.8 NE 8.8 NE 0.0 398.9
09:10 21.7 27.8 20.1 59.9 1025.5 2.6 NNW 11.5 WNW 0.0 382.8
09:15 21.7 27.2 20.1 61.2 1025.5 7.0 W 11.5 W 0.0 369.0
09:20 21.5 26.8 20.1 61.1 1025.6 6.2 WSW 11.5 W 0.0 349.5
09:25 21.5 26.5 20.1 60.8 1025.6 1.9 SW 6.1 SSW 0.0 331.3
09:30 21.5 26.1 20.1 61.3 1025.6 1.3 NW 6.1 N 0.0 316.6
09:35 21.6 25.9 20.1 61.1 1025.7 3.3 WNW 8.8 WNW 0.0 306.6
09:40 21.6 25.8 20.1 61.5 1025.7 3.7 W 8.8 WNW 0.0 322.6
09:45 21.6 25.7 20.1 62.6 1025.7 3.3 WNW 11.5 WSW 0.0 333.2
09:50 21.7 25.7 20.1 61.6 1025.7 6.1 W 11.5 WSW 0.0 364.8
09:55 21.7 25.8 20.1 62.7 1025.8 5.2 WNW 11.5 WNW 0.0 385.0
10:00 21.9 26.1 20.2 62.3 1025.7 4.0 W 8.8 W 0.0 403.8
10:05 22.0 26.5 20.3 59.0 1025.7 5.1 W 8.8 WSW 0.0 472.6
10:10 22.3 27.3 20.4 61.2 1025.7 3.7 W 8.8 W 0.0 612.6
10:15 22.6 28.0 20.6 59.7 1025.6 2.9 W 11.5 W 0.0 505.8
10:20 22.6 28.3 20.6 60.0 1025.6 7.7 WNW 11.5 WNW 0.0 492.3
10:25 22.4 28.2 20.7 60.5 1025.6 6.7 WNW 11.5 WNW 0.0 434.8
10:30 22.3 28.0 20.6 59.3 1025.6 2.3 W 8.8 WSW 0.0 337.9
10:35 22.3 27.3 20.6 58.8 1025.6 5.2 NW 8.8 NW 0.0 298.3
10:40 22.1 26.7 20.5 57.7 1025.6 2.8 NNW 6.1 NNW 0.0 273.9
10:45 22.2 26.3 20.5 58.8 1025.6 3.4 N 8.8 NNE 0.0 254.7
10:50 22.2 25.9 20.4 61.3 1025.6 5.8 NW 11.5 NW 0.0 261.8
10:55 22.0 25.4 20.4 61.4 1025.6 4.9 NNW 11.5 NNW 0.0 274.3
11:00 21.9 25.1 20.4 59.2 1025.6 3.7 N 8.8 WNW 0.0 299.6
11:05 22.1 25.4 20.4 57.8 1025.5 1.2 NNE 6.1 NE 0.0 349.7
11:10 22.3 25.8 20.5 58.3 1025.5 4.2 NW 8.8 NW 0.0 383.1
11:15 22.4 26.5 20.5 56.2 1025.4 2.1 NE 6.1 NNE 0.0 394.2
11:20 22.6 27.0 20.6 56.8 1025.4 1.2 NNW 8.8 NW 0.0 375.4
11:25 22.8 27.1 20.7 60.3 1025.4 5.3 NW 11.5 WNW 0.0 377.3
11:30 22.7 27.1 20.7 59.2 1025.5 4.9 WNW 8.8 WSW 0.0 364.6
11:35 22.8 27.1 20.7 57.8 1025.4 0.8 SW 6.1 W 0.0 331.8
11:40 22.8 27.2 20.7 55.6 1025.4 0.8 ENE 6.1 NE 0.0 334.7
11:45 22.9 27.2 20.7 56.8 1025.4 3.5 NNW 8.8 NW 0.0 332.7
11:50 22.9 27.2 20.7 57.0 1025.4 0.4 W 6.1 W 0.0 374.1
11:55 23.0 27.4 20.8 57.0 1025.4 2.0 WSW 8.8 W 0.0 445.2
12:00 23.3 27.9 20.9 58.4 1025.4 6.0 WNW 14.2 NW 0.0 446.8
12:05 23.2 28.0 20.9 58.0 1025.4 4.2 NW 8.8 WNW 0.0 472.3
12:10 23.3 28.5 21.0 57.6 1025.3 2.4 WNW 8.8 NW 0.0 494.0
12:15 23.5 29.0 21.1 56.9 1025.3 2.1 W 8.8 W 0.0 439.1
12:20 23.3 29.0 21.1 55.5 1025.3 3.1 S 6.1 WSW 0.0 401.6
12:25 23.2 28.7 21.1 57.4 1025.2 2.5 WSW 8.8 NW 0.0 368.9
12:30 23.3 28.3 21.1 59.1 1025.2 4.9 WNW 8.8 WNW 0.0 347.3
12:35 23.2 28.0 21.1 57.7 1025.2 3.3 WNW 8.8 NNW 0.0 335.7
12:40 23.0 27.8 21.0 55.6 1025.1 2.1 SSE 8.8 SSE 0.0 350.9
12:45 23.1 27.6 21.0 58.0 1025.0 4.3 SW 8.8 WSW 0.0 383.0
12:50 23.3 27.6 21.0 57.8 1025.0 5.8 SW 8.8 WSW 0.0 446.6
12:55 23.4 28.0 21.2 57.4 1025.0 6.2 WSW 11.5 W 0.0 482.3
13:00 23.4 28.5 21.3 57.3 1024.9 2.9 W 8.8 WSW 0.0 561.0
13:05 23.6 29.7 21.4 54.3 1024.8 3.0 ESE 8.8 ESE 0.0 476.0
13:10 23.8 29.9 21.5 56.8 1024.8 4.6 SSW 11.5 SSW 0.0 454.7
13:15 23.7 29.8 21.5 56.6 1024.7 6.0 SSW 11.5 SW 0.0 496.5
13:20 23.5 29.8 21.5 56.1 1024.7 4.2 S 11.5 SW 0.0 386.6
13:25 23.4 29.3 21.5 56.5 1024.7 7.5 SSW 14.2 S 0.0 364.9
13:30 23.4 28.7 21.4 57.9 1024.7 3.1 W 8.8 W 0.0 377.7
13:35 23.6 28.7 21.4 57.3 1024.7 5.4 WSW 8.8 SSW 0.0 492.4
13:40 23.7 29.5 21.6 57.6 1024.7 1.4 W 8.8 W 0.0 847.0
13:45 24.3 31.8 22.0 55.0 1024.6 5.5 S 11.5 SW 0.0 734.9
13:50 24.2 33.5 22.2 55.2 1024.6 5.0 S 14.2 SSE 0.0 870.0
13:55 24.5 34.5 22.4 55.2 1024.5 0.6 SW 6.1 W 0.0 852.0
14:00 24.8 35.3 22.6 54.0 1024.5 3.8 SSW 11.5 SW 0.0 597.4
14:05 24.4 34.2 22.6 54.5 1024.4 7.8 SW 14.2 SW 0.0 544.5
14:10 24.6 34.0 22.5 55.5 1024.4 4.6 WSW 11.5 WSW 0.0 675.9
14:15 24.5 33.4 22.6 55.3 1024.3 5.4 WSW 14.2 SSW 0.0 450.5
14:20 24.4 32.6 22.4 53.2 1024.3 4.2 SE 11.5 SE 0.0 397.7
14:25 24.2 31.5 22.3 54.5 1024.3 4.4 SSW 14.2 SSW 0.0 375.3
14:30 24.0 30.4 22.2 56.0 1024.2 6.6 SW 11.5 SSW 0.0 409.3
14:35 24.3 30.6 22.2 55.5 1024.2 7.7 S 14.2 WSW 0.0 736.0
14:40 24.7 32.2 22.4 55.8 1024.2 4.2 SSW 11.5 SSE 0.0 732.2
14:45 24.6 32.9 22.5 54.5 1024.2 6.9 SSW 11.5 SSW 0.0 662.6
14:50 25.0 34.2 22.6 53.6 1024.1 5.9 S 11.5 SSW 0.0 869.0
14:55 25.2 35.7 22.8 51.5 1024.1 5.8 SE 14.2 SSW 0.0 694.3
15:00 24.8 35.3 22.8 52.4 1024.1 3.0 S 8.8 SSW 0.0 820.0
15:05 25.4 36.0 23.0 53.6 1024.0 1.6 SE 8.8 SE 0.0 555.2
15:10 25.3 35.0 22.9 52.9 1024.1 4.0 SSE 8.8 SSE 0.0 333.0
15:15 25.0 33.2 22.7 51.0 1024.1 8.6 ESE 14.2 E 0.0 216.9
15:20 24.5 30.9 22.4 52.4 1024.1 6.7 ESE 14.2 SE 0.0 201.8
15:25 24.3 29.0 22.1 52.7 1024.1 8.5 SE 14.2 SE 0.0 202.9
15:30 24.2 27.6 21.9 52.9 1024.1 7.2 ESE 14.2 SE 0.0 237.8
15:35 24.3 27.1 21.8 52.1 1024.1 8.4 ESE 14.2 SE 0.0 284.1
15:40 24.3 27.0 21.8 50.8 1024.1 8.7 ESE 16.9 E 0.0 330.9
15:45 24.5 27.4 21.7 50.2 1024.1 6.3 ESE 11.5 ESE 0.0 353.0
15:50 24.5 27.7 21.7 49.4 1024.0 6.7 ESE 11.5 ESE 0.0 359.8
15:55 24.6 28.6 21.7 48.8 1024.0 9.5 E 14.2 E 0.0 619.6
16:00 24.7 29.9 21.8 47.9 1024.0 10.0 ESE 19.6 E 0.0 429.2
16:05 24.5 29.8 21.8 45.5 1024.0 8.9 ESE 16.9 ESE 0.0 465.1
16:10 24.7 30.1 21.8 45.2 1024.0 6.5 ESE 11.5 ESE 0.0 498.4
16:15 25.0 30.7 21.8 45.1 1024.0 5.3 ESE 11.5 SE 0.0 492.3
16:20 24.8 30.9 21.9 44.7 1023.9 7.1 SE 14.2 SSE 0.0 441.0
16:25 24.8 30.9 21.8 45.0 1023.9 7.5 SE 14.2 S 0.0 469.8
16:30 24.6 30.7 21.8 45.1 1023.8 6.2 SSE 11.5 SE 0.0 437.2
16:35 24.6 30.4 21.7 45.2 1023.8 7.0 SSE 11.5 S 0.0 422.6
16:40 24.7 30.2 21.7 45.3 1023.8 7.4 SE 14.2 ESE 0.0 434.7
16:45 24.8 30.2 21.7 45.0 1023.7 6.7 ESE 14.2 ESE 0.0 386.1
Máxima 25.5 36.0 23.0 87.7 1025.9 10.0 ESE 19.6 E 0.0 870.0
Mínima 17.6 16.3 18.4 44.7 1023.7
Total 0.0